sensor_id;sensor_type;location;lat;lon;timestamp;P1;durP1;ratioP1;P2;durP2;ratioP2
20731;SDS011;10527;52.124;5.196;2023-04-03T00:01:18;2.70;;;1.23;;
20731;SDS011;10527;52.124;5.196;2023-04-03T00:03:46;1.57;;;1.00;;
20731;SDS011;10527;52.124;5.196;2023-04-03T00:06:13;2.47;;;1.37;;
20731;SDS011;10527;52.124;5.196;2023-04-03T00:08:40;2.73;;;1.10;;
20731;SDS011;10527;52.124;5.196;2023-04-03T00:11:08;2.73;;;1.30;;
20731;SDS011;10527;52.124;5.196;2023-04-03T00:13:36;2.80;;;1.57;;
20731;SDS011;10527;52.124;5.196;2023-04-03T00:16:06;7.77;;;1.30;;
20731;SDS011;10527;52.124;5.196;2023-04-03T00:18:38;2.73;;;1.27;;
20731;SDS011;10527;52.124;5.196;2023-04-03T00:21:06;2.33;;;1.17;;
20731;SDS011;10527;52.124;5.196;2023-04-03T00:23:35;2.27;;;1.30;;
20731;SDS011;10527;52.124;5.196;2023-04-03T00:26:02;2.07;;;1.23;;
20731;SDS011;10527;52.124;5.196;2023-04-03T00:28:29;2.23;;;0.97;;
20731;SDS011;10527;52.124;5.196;2023-04-03T00:30:56;2.70;;;1.10;;
20731;SDS011;10527;52.124;5.196;2023-04-03T00:33:23;1.97;;;1.20;;
20731;SDS011;10527;52.124;5.196;2023-04-03T00:35:51;2.67;;;1.33;;
20731;SDS011;10527;52.124;5.196;2023-04-03T00:38:18;3.07;;;1.03;;
20731;SDS011;10527;52.124;5.196;2023-04-03T00:40:46;2.30;;;1.43;;
20731;SDS011;10527;52.124;5.196;2023-04-03T00:43:16;1.83;;;1.10;;
20731;SDS011;10527;52.124;5.196;2023-04-03T00:45:54;2.10;;;1.30;;
20731;SDS011;10527;52.124;5.196;2023-04-03T00:48:29;1.70;;;1.10;;
20731;SDS011;10527;52.124;5.196;2023-04-03T00:51:06;2.47;;;0.97;;
20731;SDS011;10527;52.124;5.196;2023-04-03T00:53:40;2.37;;;1.23;;
20731;SDS011;10527;52.124;5.196;2023-04-03T00:56:33;3.13;;;1.17;;
20731;SDS011;10527;52.124;5.196;2023-04-03T00:59:04;2.83;;;1.37;;
20731;SDS011;10527;52.124;5.196;2023-04-03T01:01:43;3.37;;;1.43;;
20731;SDS011;10527;52.124;5.196;2023-04-03T01:04:27;3.37;;;1.30;;
20731;SDS011;10527;52.124;5.196;2023-04-03T01:07:10;2.47;;;1.30;;
20731;SDS011;10527;52.124;5.196;2023-04-03T01:09:44;3.40;;;1.20;;
20731;SDS011;10527;52.124;5.196;2023-04-03T01:12:15;4.13;;;2.03;;
20731;SDS011;10527;52.124;5.196;2023-04-03T01:14:56;1.00;;;0.90;;
20731;SDS011;10527;52.124;5.196;2023-04-03T01:20:16;1.70;;;1.20;;
20731;SDS011;10527;52.124;5.196;2023-04-03T01:25:32;2.50;;;1.40;;
20731;SDS011;10527;52.124;5.196;2023-04-03T01:28:00;2.67;;;1.37;;
20731;SDS011;10527;52.124;5.196;2023-04-03T01:30:34;1.63;;;1.10;;
20731;SDS011;10527;52.124;5.196;2023-04-03T01:33:25;4.30;;;1.33;;
20731;SDS011;10527;52.124;5.196;2023-04-03T01:35:52;2.93;;;1.20;;
20731;SDS011;10527;52.124;5.196;2023-04-03T01:38:21;1.93;;;1.10;;
20731;SDS011;10527;52.124;5.196;2023-04-03T01:40:49;1.47;;;1.10;;
20731;SDS011;10527;52.124;5.196;2023-04-03T01:43:16;1.70;;;1.40;;
20731;SDS011;10527;52.124;5.196;2023-04-03T01:45:43;2.53;;;1.10;;
20731;SDS011;10527;52.124;5.196;2023-04-03T01:48:10;2.07;;;1.13;;
20731;SDS011;10527;52.124;5.196;2023-04-03T01:50:37;2.80;;;1.20;;
20731;SDS011;10527;52.124;5.196;2023-04-03T01:53:04;3.07;;;1.53;;
20731;SDS011;10527;52.124;5.196;2023-04-03T01:55:31;4.23;;;1.30;;
20731;SDS011;10527;52.124;5.196;2023-04-03T01:57:58;2.43;;;1.20;;
20731;SDS011;10527;52.124;5.196;2023-04-03T02:00:24;2.47;;;1.30;;
20731;SDS011;10527;52.124;5.196;2023-04-03T02:02:53;2.40;;;1.20;;
20731;SDS011;10527;52.124;5.196;2023-04-03T02:05:21;2.60;;;1.33;;
20731;SDS011;10527;52.124;5.196;2023-04-03T02:07:47;4.27;;;1.40;;
20731;SDS011;10527;52.124;5.196;2023-04-03T02:10:14;3.30;;;1.27;;
20731;SDS011;10527;52.124;5.196;2023-04-03T02:12:41;2.03;;;1.40;;
20731;SDS011;10527;52.124;5.196;2023-04-03T02:15:08;3.00;;;1.30;;
20731;SDS011;10527;52.124;5.196;2023-04-03T02:17:36;1.40;;;1.20;;
20731;SDS011;10527;52.124;5.196;2023-04-03T02:20:03;2.67;;;1.60;;
20731;SDS011;10527;52.124;5.196;2023-04-03T02:22:31;1.73;;;1.20;;
20731;SDS011;10527;52.124;5.196;2023-04-03T02:24:57;2.60;;;1.30;;
20731;SDS011;10527;52.124;5.196;2023-04-03T02:27:24;5.97;;;1.50;;
20731;SDS011;10527;52.124;5.196;2023-04-03T02:29:51;2.50;;;1.43;;
20731;SDS011;10527;52.124;5.196;2023-04-03T02:32:18;2.93;;;1.20;;
20731;SDS011;10527;52.124;5.196;2023-04-03T02:34:45;4.03;;;1.47;;
20731;SDS011;10527;52.124;5.196;2023-04-03T02:37:12;1.83;;;1.20;;
20731;SDS011;10527;52.124;5.196;2023-04-03T02:39:39;2.00;;;1.20;;
20731;SDS011;10527;52.124;5.196;2023-04-03T02:42:06;2.47;;;1.37;;
20731;SDS011;10527;52.124;5.196;2023-04-03T02:44:33;2.30;;;1.20;;
20731;SDS011;10527;52.124;5.196;2023-04-03T02:47:01;2.27;;;1.43;;
20731;SDS011;10527;52.124;5.196;2023-04-03T02:49:29;2.47;;;1.23;;
20731;SDS011;10527;52.124;5.196;2023-04-03T02:51:56;2.40;;;1.20;;
20731;SDS011;10527;52.124;5.196;2023-04-03T02:54:23;2.10;;;1.30;;
20731;SDS011;10527;52.124;5.196;2023-04-03T02:56:53;2.63;;;1.20;;
20731;SDS011;10527;52.124;5.196;2023-04-03T02:59:20;4.57;;;1.33;;
20731;SDS011;10527;52.124;5.196;2023-04-03T03:01:47;2.93;;;1.30;;
20731;SDS011;10527;52.124;5.196;2023-04-03T03:04:14;2.43;;;1.30;;
20731;SDS011;10527;52.124;5.196;2023-04-03T03:06:41;1.83;;;1.20;;
20731;SDS011;10527;52.124;5.196;2023-04-03T03:09:09;2.03;;;1.10;;
20731;SDS011;10527;52.124;5.196;2023-04-03T03:11:38;2.77;;;1.37;;
20731;SDS011;10527;52.124;5.196;2023-04-03T03:14:05;3.70;;;1.50;;
20731;SDS011;10527;52.124;5.196;2023-04-03T03:16:32;3.27;;;1.43;;
20731;SDS011;10527;52.124;5.196;2023-04-03T03:19:01;4.33;;;1.37;;
20731;SDS011;10527;52.124;5.196;2023-04-03T03:21:27;2.23;;;1.40;;
20731;SDS011;10527;52.124;5.196;2023-04-03T03:23:54;2.07;;;1.27;;
20731;SDS011;10527;52.124;5.196;2023-04-03T03:26:21;2.87;;;1.40;;
20731;SDS011;10527;52.124;5.196;2023-04-03T03:28:48;3.60;;;1.37;;
20731;SDS011;10527;52.124;5.196;2023-04-03T03:31:14;3.03;;;1.70;;
20731;SDS011;10527;52.124;5.196;2023-04-03T03:33:41;4.10;;;1.40;;
20731;SDS011;10527;52.124;5.196;2023-04-03T03:36:08;1.83;;;1.20;;
20731;SDS011;10527;52.124;5.196;2023-04-03T03:38:36;1.70;;;1.13;;
20731;SDS011;10527;52.124;5.196;2023-04-03T03:41:03;1.93;;;1.40;;
20731;SDS011;10527;52.124;5.196;2023-04-03T03:43:29;2.03;;;1.23;;
20731;SDS011;10527;52.124;5.196;2023-04-03T03:45:56;4.23;;;1.33;;
20731;SDS011;10527;52.124;5.196;2023-04-03T03:48:23;3.17;;;1.30;;
20731;SDS011;10527;52.124;5.196;2023-04-03T03:50:52;3.43;;;1.20;;
20731;SDS011;10527;52.124;5.196;2023-04-03T03:53:19;2.20;;;1.17;;
20731;SDS011;10527;52.124;5.196;2023-04-03T03:55:46;2.97;;;1.30;;
20731;SDS011;10527;52.124;5.196;2023-04-03T03:58:12;2.57;;;1.30;;
20731;SDS011;10527;52.124;5.196;2023-04-03T04:00:39;1.70;;;1.30;;
20731;SDS011;10527;52.124;5.196;2023-04-03T04:03:06;2.23;;;1.20;;
20731;SDS011;10527;52.124;5.196;2023-04-03T04:05:33;1.87;;;1.20;;
20731;SDS011;10527;52.124;5.196;2023-04-03T04:08:01;2.37;;;1.30;;
20731;SDS011;10527;52.124;5.196;2023-04-03T04:10:28;3.50;;;1.40;;
20731;SDS011;10527;52.124;5.196;2023-04-03T04:12:54;1.63;;;1.10;;
20731;SDS011;10527;52.124;5.196;2023-04-03T04:15:23;3.93;;;1.50;;
20731;SDS011;10527;52.124;5.196;2023-04-03T04:17:52;3.83;;;1.83;;
20731;SDS011;10527;52.124;5.196;2023-04-03T04:20:19;2.70;;;1.43;;
20731;SDS011;10527;52.124;5.196;2023-04-03T04:22:46;3.03;;;1.33;;
20731;SDS011;10527;52.124;5.196;2023-04-03T04:25:13;3.73;;;1.40;;
20731;SDS011;10527;52.124;5.196;2023-04-03T04:27:40;1.17;;;1.07;;
20731;SDS011;10527;52.124;5.196;2023-04-03T04:30:07;2.30;;;1.60;;
20731;SDS011;10527;52.124;5.196;2023-04-03T04:32:35;5.70;;;1.70;;
20731;SDS011;10527;52.124;5.196;2023-04-03T04:35:03;2.70;;;1.40;;
20731;SDS011;10527;52.124;5.196;2023-04-03T04:37:32;3.63;;;1.50;;
20731;SDS011;10527;52.124;5.196;2023-04-03T04:39:59;3.53;;;1.53;;
20731;SDS011;10527;52.124;5.196;2023-04-03T04:42:26;3.43;;;1.60;;
20731;SDS011;10527;52.124;5.196;2023-04-03T04:44:53;2.13;;;1.27;;
20731;SDS011;10527;52.124;5.196;2023-04-03T04:47:20;3.67;;;1.50;;
20731;SDS011;10527;52.124;5.196;2023-04-03T04:49:46;3.23;;;1.50;;
20731;SDS011;10527;52.124;5.196;2023-04-03T04:52:14;3.53;;;1.30;;
20731;SDS011;10527;52.124;5.196;2023-04-03T04:54:41;3.93;;;1.43;;
20731;SDS011;10527;52.124;5.196;2023-04-03T04:57:08;3.97;;;1.50;;
20731;SDS011;10527;52.124;5.196;2023-04-03T04:59:35;2.73;;;1.40;;
20731;SDS011;10527;52.124;5.196;2023-04-03T05:02:03;3.20;;;1.60;;
20731;SDS011;10527;52.124;5.196;2023-04-03T05:04:30;5.37;;;1.50;;
20731;SDS011;10527;52.124;5.196;2023-04-03T05:06:57;2.73;;;1.40;;
20731;SDS011;10527;52.124;5.196;2023-04-03T05:09:25;4.53;;;1.40;;
20731;SDS011;10527;52.124;5.196;2023-04-03T05:11:52;3.60;;;2.03;;
20731;SDS011;10527;52.124;5.196;2023-04-03T05:14:19;4.77;;;1.70;;
20731;SDS011;10527;52.124;5.196;2023-04-03T05:16:46;4.40;;;1.50;;
20731;SDS011;10527;52.124;5.196;2023-04-03T05:19:16;3.20;;;1.70;;
20731;SDS011;10527;52.124;5.196;2023-04-03T05:21:44;2.63;;;1.60;;
20731;SDS011;10527;52.124;5.196;2023-04-03T05:24:12;4.03;;;1.90;;
20731;SDS011;10527;52.124;5.196;2023-04-03T05:26:42;5.60;;;3.27;;
20731;SDS011;10527;52.124;5.196;2023-04-03T05:29:10;5.30;;;1.70;;
20731;SDS011;10527;52.124;5.196;2023-04-03T05:31:37;5.40;;;1.70;;
20731;SDS011;10527;52.124;5.196;2023-04-03T05:34:04;3.00;;;1.53;;
20731;SDS011;10527;52.124;5.196;2023-04-03T05:36:31;4.27;;;1.70;;
20731;SDS011;10527;52.124;5.196;2023-04-03T05:38:59;3.83;;;1.50;;
20731;SDS011;10527;52.124;5.196;2023-04-03T05:41:26;4.10;;;1.90;;
20731;SDS011;10527;52.124;5.196;2023-04-03T05:43:53;3.73;;;2.13;;
20731;SDS011;10527;52.124;5.196;2023-04-03T05:46:20;3.77;;;2.10;;
20731;SDS011;10527;52.124;5.196;2023-04-03T05:48:48;3.40;;;1.93;;
20731;SDS011;10527;52.124;5.196;2023-04-03T05:51:25;4.47;;;2.80;;
20731;SDS011;10527;52.124;5.196;2023-04-03T05:54:18;3.33;;;1.60;;
20731;SDS011;10527;52.124;5.196;2023-04-03T05:56:54;4.57;;;1.53;;
20731;SDS011;10527;52.124;5.196;2023-04-03T05:59:21;6.47;;;1.90;;
20731;SDS011;10527;52.124;5.196;2023-04-03T06:01:48;5.40;;;1.90;;
20731;SDS011;10527;52.124;5.196;2023-04-03T06:04:15;3.07;;;1.70;;
20731;SDS011;10527;52.124;5.196;2023-04-03T06:06:43;4.60;;;1.60;;
20731;SDS011;10527;52.124;5.196;2023-04-03T06:09:23;5.17;;;1.90;;
20731;SDS011;10527;52.124;5.196;2023-04-03T06:11:52;7.30;;;2.13;;
20731;SDS011;10527;52.124;5.196;2023-04-03T06:14:19;3.93;;;1.80;;
20731;SDS011;10527;52.124;5.196;2023-04-03T06:16:46;3.90;;;1.80;;
20731;SDS011;10527;52.124;5.196;2023-04-03T06:19:14;3.50;;;2.20;;
20731;SDS011;10527;52.124;5.196;2023-04-03T06:21:41;2.83;;;1.50;;
20731;SDS011;10527;52.124;5.196;2023-04-03T06:24:09;4.77;;;1.87;;
20731;SDS011;10527;52.124;5.196;2023-04-03T06:26:40;3.63;;;2.20;;
20731;SDS011;10527;52.124;5.196;2023-04-03T06:29:08;3.50;;;1.50;;
20731;SDS011;10527;52.124;5.196;2023-04-03T06:31:35;2.23;;;1.30;;
20731;SDS011;10527;52.124;5.196;2023-04-03T06:34:03;3.87;;;1.73;;
20731;SDS011;10527;52.124;5.196;2023-04-03T06:36:34;6.77;;;1.80;;
20731;SDS011;10527;52.124;5.196;2023-04-03T06:39:01;3.00;;;1.37;;
20731;SDS011;10527;52.124;5.196;2023-04-03T06:41:29;4.77;;;1.90;;
20731;SDS011;10527;52.124;5.196;2023-04-03T06:43:56;2.50;;;1.27;;
20731;SDS011;10527;52.124;5.196;2023-04-03T06:46:24;3.90;;;1.83;;
20731;SDS011;10527;52.124;5.196;2023-04-03T06:48:56;5.50;;;2.33;;
20731;SDS011;10527;52.124;5.196;2023-04-03T06:53:56;6.00;;;1.80;;
20731;SDS011;10527;52.124;5.196;2023-04-03T06:56:26;5.30;;;1.83;;
20731;SDS011;10527;52.124;5.196;2023-04-03T06:58:54;3.83;;;1.47;;
20731;SDS011;10527;52.124;5.196;2023-04-03T07:01:25;2.97;;;1.63;;
20731;SDS011;10527;52.124;5.196;2023-04-03T07:03:54;2.23;;;1.27;;
20731;SDS011;10527;52.124;5.196;2023-04-03T07:06:22;2.57;;;1.60;;
20731;SDS011;10527;52.124;5.196;2023-04-03T07:08:52;4.73;;;1.77;;
20731;SDS011;10527;52.124;5.196;2023-04-03T07:11:22;3.03;;;1.40;;
20731;SDS011;10527;52.124;5.196;2023-04-03T07:13:51;2.67;;;1.50;;
20731;SDS011;10527;52.124;5.196;2023-04-03T07:16:20;5.03;;;1.40;;
20731;SDS011;10527;52.124;5.196;2023-04-03T07:18:47;5.77;;;1.40;;
20731;SDS011;10527;52.124;5.196;2023-04-03T07:21:16;3.93;;;1.33;;
20731;SDS011;10527;52.124;5.196;2023-04-03T07:23:42;1.63;;;1.40;;
20731;SDS011;10527;52.124;5.196;2023-04-03T07:26:09;8.77;;;2.00;;
20731;SDS011;10527;52.124;5.196;2023-04-03T07:28:36;7.53;;;1.77;;
20731;SDS011;10527;52.124;5.196;2023-04-03T07:31:06;3.67;;;1.87;;
20731;SDS011;10527;52.124;5.196;2023-04-03T07:33:37;4.23;;;1.60;;
20731;SDS011;10527;52.124;5.196;2023-04-03T07:36:06;5.13;;;1.67;;
20731;SDS011;10527;52.124;5.196;2023-04-03T07:38:35;6.00;;;1.70;;
20731;SDS011;10527;52.124;5.196;2023-04-03T07:41:03;5.97;;;1.70;;
20731;SDS011;10527;52.124;5.196;2023-04-03T07:43:30;5.37;;;1.57;;
20731;SDS011;10527;52.124;5.196;2023-04-03T07:45:57;4.20;;;1.90;;
20731;SDS011;10527;52.124;5.196;2023-04-03T07:48:25;3.10;;;1.70;;
20731;SDS011;10527;52.124;5.196;2023-04-03T07:50:53;3.33;;;1.50;;
20731;SDS011;10527;52.124;5.196;2023-04-03T07:53:19;3.73;;;1.40;;
20731;SDS011;10527;52.124;5.196;2023-04-03T07:55:49;5.07;;;1.60;;
20731;SDS011;10527;52.124;5.196;2023-04-03T07:58:17;5.07;;;1.50;;
20731;SDS011;10527;52.124;5.196;2023-04-03T08:00:45;3.83;;;1.30;;
20731;SDS011;10527;52.124;5.196;2023-04-03T08:03:13;5.47;;;2.50;;
20731;SDS011;10527;52.124;5.196;2023-04-03T08:05:44;2.87;;;1.20;;
20731;SDS011;10527;52.124;5.196;2023-04-03T08:08:14;2.43;;;1.13;;
20731;SDS011;10527;52.124;5.196;2023-04-03T08:10:50;4.53;;;1.33;;
20731;SDS011;10527;52.124;5.196;2023-04-03T08:13:20;3.13;;;1.17;;
20731;SDS011;10527;52.124;5.196;2023-04-03T08:15:51;3.87;;;1.20;;
20731;SDS011;10527;52.124;5.196;2023-04-03T08:18:18;3.43;;;1.33;;
20731;SDS011;10527;52.124;5.196;2023-04-03T08:20:47;3.17;;;1.10;;
20731;SDS011;10527;52.124;5.196;2023-04-03T08:23:14;2.20;;;0.88;;
20731;SDS011;10527;52.124;5.196;2023-04-03T08:25:44;4.35;;;0.90;;
20731;SDS011;10527;52.124;5.196;2023-04-03T08:28:11;2.85;;;1.00;;
20731;SDS011;10527;52.124;5.196;2023-04-03T08:30:39;2.17;;;0.70;;
20731;SDS011;10527;52.124;5.196;2023-04-03T08:33:08;2.50;;;0.80;;
20731;SDS011;10527;52.124;5.196;2023-04-03T08:35:40;3.20;;;1.35;;
20731;SDS011;10527;52.124;5.196;2023-04-03T08:38:09;3.25;;;0.82;;
20731;SDS011;10527;52.124;5.196;2023-04-03T08:40:39;3.90;;;1.05;;
20731;SDS011;10527;52.124;5.196;2023-04-03T08:46:32;4.57;;;0.77;;
20731;SDS011;10527;52.124;5.196;2023-04-03T08:49:21;1.88;;;0.80;;
20731;SDS011;10527;52.124;5.196;2023-04-03T08:51:52;1.48;;;0.60;;
20731;SDS011;10527;52.124;5.196;2023-04-03T08:54:25;1.75;;;0.63;;
20731;SDS011;10527;52.124;5.196;2023-04-03T08:57:01;1.40;;;0.70;;
20731;SDS011;10527;52.124;5.196;2023-04-03T08:59:33;0.95;;;0.50;;
20731;SDS011;10527;52.124;5.196;2023-04-03T09:02:21;2.13;;;0.60;;
20731;SDS011;10527;52.124;5.196;2023-04-03T09:05:15;2.35;;;0.63;;
20731;SDS011;10527;52.124;5.196;2023-04-03T09:08:22;1.45;;;0.70;;
20731;SDS011;10527;52.124;5.196;2023-04-03T09:11:24;1.10;;;0.47;;
20731;SDS011;10527;52.124;5.196;2023-04-03T09:17:16;3.65;;;0.55;;
20731;SDS011;10527;52.124;5.196;2023-04-03T09:22:54;1.55;;;0.60;;
20731;SDS011;10527;52.124;5.196;2023-04-03T09:25:22;1.25;;;0.43;;
20731;SDS011;10527;52.124;5.196;2023-04-03T09:27:59;0.85;;;0.40;;
20731;SDS011;10527;52.124;5.196;2023-04-03T09:30:27;2.00;;;1.27;;
20731;SDS011;10527;52.124;5.196;2023-04-03T09:32:56;0.65;;;0.30;;
20731;SDS011;10527;52.124;5.196;2023-04-03T09:35:24;0.38;;;0.30;;
20731;SDS011;10527;52.124;5.196;2023-04-03T09:41:22;1.65;;;0.63;;
20731;SDS011;10527;52.124;5.196;2023-04-03T09:43:34;0.95;;;0.50;;
20731;SDS011;10527;52.124;5.196;2023-04-03T09:48:57;0.52;;;0.50;;
20731;SDS011;10527;52.124;5.196;2023-04-03T09:51:35;0.65;;;0.30;;
20731;SDS011;10527;52.124;5.196;2023-04-03T09:54:25;0.73;;;0.30;;
20731;SDS011;10527;52.124;5.196;2023-04-03T09:57:13;0.93;;;0.30;;
20731;SDS011;10527;52.124;5.196;2023-04-03T09:59:42;1.33;;;0.40;;
20731;SDS011;10527;52.124;5.196;2023-04-03T10:05:25;1.67;;;0.47;;
20731;SDS011;10527;52.124;5.196;2023-04-03T10:10:44;1.70;;;0.50;;
20731;SDS011;10527;52.124;5.196;2023-04-03T10:13:18;0.70;;;0.50;;
20731;SDS011;10527;52.124;5.196;2023-04-03T10:16:03;0.73;;;0.30;;
20731;SDS011;10527;52.124;5.196;2023-04-03T10:21:40;0.45;;;0.30;;
20731;SDS011;10527;52.124;5.196;2023-04-03T10:24:25;0.55;;;0.40;;
20731;SDS011;10527;52.124;5.196;2023-04-03T10:27:07;1.70;;;0.50;;
20731;SDS011;10527;52.124;5.196;2023-04-03T10:36:19;0.60;;;0.35;;
20731;SDS011;10527;52.124;5.196;2023-04-03T10:39:00;1.30;;;0.75;;
20731;SDS011;10527;52.124;5.196;2023-04-03T10:42:26;0.25;;;0.25;;
20731;SDS011;10527;52.124;5.196;2023-04-03T10:48:44;0.88;;;0.40;;
20731;SDS011;10527;52.124;5.196;2023-04-03T10:51:25;1.13;;;0.47;;
20731;SDS011;10527;52.124;5.196;2023-04-03T10:54:08;0.35;;;0.32;;
20731;SDS011;10527;52.124;5.196;2023-04-03T10:56:52;2.78;;;0.50;;
20731;SDS011;10527;52.124;5.196;2023-04-03T10:59:47;1.40;;;0.70;;
20731;SDS011;10527;52.124;5.196;2023-04-03T11:02:52;0.77;;;0.40;;
20731;SDS011;10527;52.124;5.196;2023-04-03T11:11:05;0.75;;;0.40;;
20731;SDS011;10527;52.124;5.196;2023-04-03T11:16:30;0.30;;;0.25;;
20731;SDS011;10527;52.124;5.196;2023-04-03T11:19:26;0.90;;;0.30;;
20731;SDS011;10527;52.124;5.196;2023-04-03T11:24:45;1.00;;;0.40;;
20731;SDS011;10527;52.124;5.196;2023-04-03T11:27:22;0.93;;;0.40;;
20731;SDS011;10527;52.124;5.196;2023-04-03T11:29:51;2.17;;;0.43;;
20731;SDS011;10527;52.124;5.196;2023-04-03T11:32:37;4.38;;;0.70;;
20731;SDS011;10527;52.124;5.196;2023-04-03T11:35:37;0.40;;;0.40;;
20731;SDS011;10527;52.124;5.196;2023-04-03T11:38:15;1.42;;;0.60;;
20731;SDS011;10527;52.124;5.196;2023-04-03T11:40:50;1.38;;;0.30;;
20731;SDS011;10527;52.124;5.196;2023-04-03T11:43:23;1.33;;;0.50;;
20731;SDS011;10527;52.124;5.196;2023-04-03T11:46:02;0.63;;;0.40;;
20731;SDS011;10527;52.124;5.196;2023-04-03T11:53:54;1.45;;;0.57;;
20731;SDS011;10527;52.124;5.196;2023-04-03T12:05:57;0.70;;;0.43;;
20731;SDS011;10527;52.124;5.196;2023-04-03T12:11:26;2.35;;;0.57;;
20731;SDS011;10527;52.124;5.196;2023-04-03T12:16:28;1.15;;;0.93;;
20731;SDS011;10527;52.124;5.196;2023-04-03T12:22:09;2.15;;;0.70;;
20731;SDS011;10527;52.124;5.196;2023-04-03T12:24:43;0.95;;;0.60;;
20731;SDS011;10527;52.124;5.196;2023-04-03T12:30:25;1.55;;;0.65;;
20731;SDS011;10527;52.124;5.196;2023-04-03T12:33:12;2.60;;;0.95;;
20731;SDS011;10527;52.124;5.196;2023-04-03T12:36:18;2.20;;;0.70;;
20731;SDS011;10527;52.124;5.196;2023-04-03T12:45:27;1.15;;;0.50;;
20731;SDS011;10527;52.124;5.196;2023-04-03T12:47:38;1.08;;;0.57;;
20731;SDS011;10527;52.124;5.196;2023-04-03T12:50:16;1.98;;;0.70;;
20731;SDS011;10527;52.124;5.196;2023-04-03T12:52:59;1.88;;;0.60;;
20731;SDS011;10527;52.124;5.196;2023-04-03T12:55:33;1.38;;;0.52;;
20731;SDS011;10527;52.124;5.196;2023-04-03T13:00:59;0.50;;;0.45;;
20731;SDS011;10527;52.124;5.196;2023-04-03T13:03:40;2.10;;;0.45;;
20731;SDS011;10527;52.124;5.196;2023-04-03T13:06:16;2.38;;;0.50;;
20731;SDS011;10527;52.124;5.196;2023-04-03T13:08:56;0.50;;;0.47;;
20731;SDS011;10527;52.124;5.196;2023-04-03T13:11:31;1.08;;;0.55;;
20731;SDS011;10527;52.124;5.196;2023-04-03T13:14:05;1.55;;;0.45;;
20731;SDS011;10527;52.124;5.196;2023-04-03T13:19:38;1.58;;;0.70;;
20731;SDS011;10527;52.124;5.196;2023-04-03T13:22:11;1.15;;;0.60;;
20731;SDS011;10527;52.124;5.196;2023-04-03T13:24:54;2.08;;;0.60;;
20731;SDS011;10527;52.124;5.196;2023-04-03T13:27:24;1.55;;;0.60;;
20731;SDS011;10527;52.124;5.196;2023-04-03T13:29:53;1.98;;;0.88;;
20731;SDS011;10527;52.124;5.196;2023-04-03T13:32:25;0.90;;;0.50;;
20731;SDS011;10527;52.124;5.196;2023-04-03T13:34:54;4.18;;;1.00;;
20731;SDS011;10527;52.124;5.196;2023-04-03T13:37:31;1.75;;;0.77;;
20731;SDS011;10527;52.124;5.196;2023-04-03T13:42:33;2.35;;;0.70;;
20731;SDS011;10527;52.124;5.196;2023-04-03T13:45:11;2.53;;;0.70;;
20731;SDS011;10527;52.124;5.196;2023-04-03T13:47:46;1.15;;;0.50;;
20731;SDS011;10527;52.124;5.196;2023-04-03T13:50:19;3.55;;;0.85;;
20731;SDS011;10527;52.124;5.196;2023-04-03T13:52:52;2.50;;;0.73;;
20731;SDS011;10527;52.124;5.196;2023-04-03T13:55:52;2.10;;;0.70;;
20731;SDS011;10527;52.124;5.196;2023-04-03T13:58:30;1.25;;;0.70;;
20731;SDS011;10527;52.124;5.196;2023-04-03T14:01:20;1.42;;;0.60;;
20731;SDS011;10527;52.124;5.196;2023-04-03T14:06:22;0.85;;;0.40;;
20731;SDS011;10527;52.124;5.196;2023-04-03T14:08:52;1.67;;;0.95;;
20731;SDS011;10527;52.124;5.196;2023-04-03T14:11:24;1.27;;;0.68;;
20731;SDS011;10527;52.124;5.196;2023-04-03T14:13:56;2.03;;;0.55;;
20731;SDS011;10527;52.124;5.196;2023-04-03T14:16:29;2.08;;;1.00;;
20731;SDS011;10527;52.124;5.196;2023-04-03T14:19:03;0.68;;;0.50;;
20731;SDS011;10527;52.124;5.196;2023-04-03T14:21:30;2.25;;;0.90;;
20731;SDS011;10527;52.124;5.196;2023-04-03T14:23:57;2.58;;;0.55;;
20731;SDS011;10527;52.124;5.196;2023-04-03T14:26:24;1.33;;;0.52;;
20731;SDS011;10527;52.124;5.196;2023-04-03T14:28:53;2.72;;;0.77;;
20731;SDS011;10527;52.124;5.196;2023-04-03T14:31:21;4.28;;;0.80;;
20731;SDS011;10527;52.124;5.196;2023-04-03T14:33:49;0.93;;;0.50;;
20731;SDS011;10527;52.124;5.196;2023-04-03T14:36:20;1.13;;;0.52;;
20731;SDS011;10527;52.124;5.196;2023-04-03T14:38:52;1.73;;;0.65;;
20731;SDS011;10527;52.124;5.196;2023-04-03T14:41:22;1.38;;;0.65;;
20731;SDS011;10527;52.124;5.196;2023-04-03T14:43:51;1.08;;;0.65;;
20731;SDS011;10527;52.124;5.196;2023-04-03T14:46:20;2.08;;;0.63;;
20731;SDS011;10527;52.124;5.196;2023-04-03T14:49:18;2.00;;;0.77;;
20731;SDS011;10527;52.124;5.196;2023-04-03T14:51:57;1.83;;;0.80;;
20731;SDS011;10527;52.124;5.196;2023-04-03T14:54:24;2.65;;;0.73;;
20731;SDS011;10527;52.124;5.196;2023-04-03T14:56:55;3.15;;;0.70;;
20731;SDS011;10527;52.124;5.196;2023-04-03T14:59:25;1.73;;;0.70;;
20731;SDS011;10527;52.124;5.196;2023-04-03T15:01:54;2.17;;;0.73;;
20731;SDS011;10527;52.124;5.196;2023-04-03T15:04:21;1.50;;;0.65;;
20731;SDS011;10527;52.124;5.196;2023-04-03T15:06:48;2.78;;;0.82;;
20731;SDS011;10527;52.124;5.196;2023-04-03T15:11:47;2.00;;;1.25;;
20731;SDS011;10527;52.124;5.196;2023-04-03T15:14:16;1.77;;;0.90;;
20731;SDS011;10527;52.124;5.196;2023-04-03T15:17:02;1.48;;;0.68;;
20731;SDS011;10527;52.124;5.196;2023-04-03T15:19:37;0.90;;;0.60;;
20731;SDS011;10527;52.124;5.196;2023-04-03T15:22:05;1.88;;;0.80;;
20731;SDS011;10527;52.124;5.196;2023-04-03T15:24:32;1.27;;;0.70;;
20731;SDS011;10527;52.124;5.196;2023-04-03T15:26:59;1.77;;;0.80;;
20731;SDS011;10527;52.124;5.196;2023-04-03T15:29:27;2.67;;;0.93;;
20731;SDS011;10527;52.124;5.196;2023-04-03T15:31:54;3.78;;;1.00;;
20731;SDS011;10527;52.124;5.196;2023-04-03T15:34:21;1.30;;;0.63;;
20731;SDS011;10527;52.124;5.196;2023-04-03T15:36:49;1.52;;;0.70;;
20731;SDS011;10527;52.124;5.196;2023-04-03T15:39:19;2.25;;;0.90;;
20731;SDS011;10527;52.124;5.196;2023-04-03T15:41:47;1.98;;;0.90;;
20731;SDS011;10527;52.124;5.196;2023-04-03T15:44:14;2.78;;;0.80;;
20731;SDS011;10527;52.124;5.196;2023-04-03T15:46:47;2.47;;;0.90;;
20731;SDS011;10527;52.124;5.196;2023-04-03T15:49:18;2.10;;;0.77;;
20731;SDS011;10527;52.124;5.196;2023-04-03T15:51:47;2.22;;;0.77;;
20731;SDS011;10527;52.124;5.196;2023-04-03T15:54:17;1.80;;;0.75;;
20731;SDS011;10527;52.124;5.196;2023-04-03T15:56:44;2.67;;;0.90;;
20731;SDS011;10527;52.124;5.196;2023-04-03T15:59:11;1.73;;;0.95;;
20731;SDS011;10527;52.124;5.196;2023-04-03T16:01:38;1.77;;;0.80;;
20731;SDS011;10527;52.124;5.196;2023-04-03T16:04:07;2.20;;;0.80;;
20731;SDS011;10527;52.124;5.196;2023-04-03T16:06:36;2.75;;;1.20;;
20731;SDS011;10527;52.124;5.196;2023-04-03T16:09:04;2.75;;;1.05;;
20731;SDS011;10527;52.124;5.196;2023-04-03T16:11:32;1.67;;;0.60;;
20731;SDS011;10527;52.124;5.196;2023-04-03T16:14:01;2.00;;;0.90;;
20731;SDS011;10527;52.124;5.196;2023-04-03T16:16:28;3.42;;;1.38;;
20731;SDS011;10527;52.124;5.196;2023-04-03T16:18:56;5.32;;;0.95;;
20731;SDS011;10527;52.124;5.196;2023-04-03T16:21:23;3.65;;;1.00;;
20731;SDS011;10527;52.124;5.196;2023-04-03T16:23:51;2.65;;;0.95;;
20731;SDS011;10527;52.124;5.196;2023-04-03T16:26:17;2.53;;;0.77;;
20731;SDS011;10527;52.124;5.196;2023-04-03T16:28:44;2.53;;;1.00;;
20731;SDS011;10527;52.124;5.196;2023-04-03T16:31:11;1.40;;;0.70;;
20731;SDS011;10527;52.124;5.196;2023-04-03T16:33:38;2.88;;;0.90;;
20731;SDS011;10527;52.124;5.196;2023-04-03T16:36:05;3.83;;;1.10;;
20731;SDS011;10527;52.124;5.196;2023-04-03T16:38:33;2.53;;;0.85;;
20731;SDS011;10527;52.124;5.196;2023-04-03T16:41:00;3.03;;;0.88;;
20731;SDS011;10527;52.124;5.196;2023-04-03T16:43:31;4.43;;;1.10;;
20731;SDS011;10527;52.124;5.196;2023-04-03T16:45:58;3.30;;;0.90;;
20731;SDS011;10527;52.124;5.196;2023-04-03T16:48:28;2.13;;;0.88;;
20731;SDS011;10527;52.124;5.196;2023-04-03T16:50:56;1.90;;;0.70;;
20731;SDS011;10527;52.124;5.196;2023-04-03T16:53:23;2.13;;;0.90;;